PWSweather.com
Personal Weather Stations
Station Observations

NjegusiYU

Lat: 42.43746, Lon: 18.822765

Elevation: 856

Station Type: Davis Vantage Vue

http://pljusak.com/njegusi/index.html

Latest ConditionsUpdated 8:20:00 AM GMT+01:01 Thursday, Jan 18, 2018
Currently Today's Max Today's Min Today's Average
Temperature 31.2°F-0.4°C 34.2°F1.2°C 28.0°F-2.2°C 31.1°F-0.5°C
Dew Point 19.0°F-7.2°C 23.8°F-4.6°C 17.2°F-8.2°C 20.7°F-6.3°C
Winds 1.0 mph SE1.6 kmh SE 5.0 mph SE8.0 kmh SE - 2.4 mph 3.9 kmh
Wind Gusts 6.0 mph9.7 kmh 21.0 mph33.8 kmh - -
Humidity 60% 72% 56% 65%
Pressure 27.05 in916.0 mb 27.05 in916.0 mb 26.78 in906.9 mb -
Hour Temp Dew Point Humidity Winds Wind Gusts Pressure Precip Precip Rate Daily Precip Total
08:20 AM 31.2°F-0.4°C 19.0°F-7.2°C 60% 1.0 mph SE1.6 kmh SE 6.0 mph9.7 kmh 27.05 in916.0 mb 0.00 in0.0 mm 0.00 in0.0 mm 0.00 in0.0 mm
08:10 AM 31.0°F-0.6°C 17.2°F-8.2°C 56% 4.0 mph ESE6.4 kmh ESE 10.0 mph16.1 kmh 27.04 in915.7 mb 0.00 in0.0 mm 0.00 in0.0 mm 0.00 in0.0 mm
08:00 AM 30.4°F-0.9°C 17.4°F-8.1°C 58% 2.0 mph ESE3.2 kmh ESE 7.0 mph11.3 kmh 27.04 in915.7 mb 0.00 in0.0 mm 0.00 in0.0 mm 0.00 in0.0 mm
07:50 AM 30.2°F-1.0°C 18.4°F-7.6°C 61% 2.0 mph E3.2 kmh E 5.0 mph8.0 kmh 27.04 in915.7 mb 0.00 in0.0 mm 0.00 in0.0 mm 0.00 in0.0 mm
07:40 AM 29.6°F-1.3°C 18.6°F-7.4°C 63% 2.0 mph SSE3.2 kmh SSE 11.0 mph17.7 kmh 27.03 in915.3 mb 0.00 in0.0 mm 0.00 in0.0 mm 0.00 in0.0 mm
07:30 AM 29.3°F-1.5°C 19.0°F-7.2°C 65% 1.0 mph SSE1.6 kmh SSE 7.0 mph11.3 kmh 27.03 in915.3 mb 0.00 in0.0 mm 0.00 in0.0 mm 0.00 in0.0 mm
07:20 AM 29.4°F-1.4°C 18.8°F-7.3°C 64% 1.0 mph SSE1.6 kmh SSE 5.0 mph8.0 kmh 27.02 in915.0 mb 0.00 in0.0 mm 0.00 in0.0 mm 0.00 in0.0 mm
07:10 AM 29.3°F-1.5°C 18.7°F-7.4°C 64% 3.0 mph ESE4.8 kmh ESE 7.0 mph11.3 kmh 27.02 in915.0 mb 0.00 in0.0 mm 0.00 in0.0 mm 0.00 in0.0 mm
07:00 AM 28.3°F-2.1°C 19.8°F-6.8°C 70% 1.0 mph SE1.6 kmh SE 8.0 mph12.9 kmh 27.02 in915.0 mb 0.00 in0.0 mm 0.00 in0.0 mm 0.00 in0.0 mm
06:50 AM 28.3°F-2.1°C 19.8°F-6.8°C 70% 2.0 mph S3.2 kmh S 5.0 mph8.0 kmh 27.01 in914.7 mb 0.00 in0.0 mm 0.00 in0.0 mm 0.00 in0.0 mm
06:40 AM 28.2°F-2.1°C 19.7°F-6.8°C 70% 2.0 mph SE3.2 kmh SE 5.0 mph8.0 kmh 27.00 in914.3 mb 0.00 in0.0 mm 0.00 in0.0 mm 0.00 in0.0 mm
06:30 AM 28.0°F-2.2°C 19.8°F-6.8°C 71% 1.0 mph SE1.6 kmh SE 5.0 mph8.0 kmh 26.99 in914.0 mb 0.00 in0.0 mm 0.00 in0.0 mm 0.00 in0.0 mm
06:20 AM 28.1°F-2.2°C 20.3°F-6.5°C 72% Calm Calm 2.0 mph3.2 kmh 26.98 in913.6 mb 0.00 in0.0 mm 0.00 in0.0 mm 0.00 in0.0 mm
06:10 AM 28.6°F-1.9°C 20.1°F-6.6°C 70% 1.0 mph NE1.6 kmh NE 3.0 mph4.8 kmh 26.98 in913.6 mb 0.00 in0.0 mm 0.00 in0.0 mm 0.00 in0.0 mm
06:00 AM 29.4°F-1.4°C 19.1°F-7.2°C 65% 2.0 mph ESE3.2 kmh ESE 7.0 mph11.3 kmh 26.97 in913.3 mb 0.00 in0.0 mm 0.00 in0.0 mm 0.00 in0.0 mm
05:50 AM 29.0°F-1.7°C 19.8°F-6.8°C 68% 1.0 mph 1.6 kmh 2.0 mph3.2 kmh 26.97 in913.3 mb 0.00 in0.0 mm 0.00 in0.0 mm 0.00 in0.0 mm
05:40 AM 29.7°F-1.3°C 19.4°F-7.0°C 65% Calm Calm 3.0 mph4.8 kmh 26.96 in913.0 mb 0.00 in0.0 mm 0.00 in0.0 mm 0.00 in0.0 mm
05:30 AM 30.8°F-0.7°C 19.3°F-7.1°C 62% 3.0 mph SW4.8 kmh SW 11.0 mph17.7 kmh 26.96 in913.0 mb 0.00 in0.0 mm 0.00 in0.0 mm 0.00 in0.0 mm
05:20 AM 31.0°F-0.6°C 18.4°F-7.6°C 59% 2.0 mph SW3.2 kmh SW 7.0 mph11.3 kmh 26.96 in913.0 mb 0.00 in0.0 mm 0.00 in0.0 mm 0.00 in0.0 mm
05:10 AM 31.0°F-0.6°C 18.0°F-7.8°C 58% 4.0 mph SE6.4 kmh SE 11.0 mph17.7 kmh 26.95 in912.6 mb 0.00 in0.0 mm 0.00 in0.0 mm 0.00 in0.0 mm
05:00 AM 30.6°F-0.8°C 19.9°F-6.7°C 64% 4.0 mph SSE6.4 kmh SSE 9.0 mph14.5 kmh 26.95 in912.6 mb 0.00 in0.0 mm 0.00 in0.0 mm 0.00 in0.0 mm
04:50 AM 30.8°F-0.7°C 19.0°F-7.2°C 61% 3.0 mph SSW4.8 kmh SSW 9.0 mph14.5 kmh 26.94 in912.3 mb 0.00 in0.0 mm 0.00 in0.0 mm 0.00 in0.0 mm
04:40 AM 30.8°F-0.7°C 20.1°F-6.6°C 64% 4.0 mph SSW6.4 kmh SSW 9.0 mph14.5 kmh 26.95 in912.6 mb 0.00 in0.0 mm 0.00 in0.0 mm 0.00 in0.0 mm
04:30 AM 30.9°F-0.6°C 19.4°F-7.0°C 62% 4.0 mph SSW6.4 kmh SSW 16.0 mph25.7 kmh 26.94 in912.3 mb 0.00 in0.0 mm 0.00 in0.0 mm 0.00 in0.0 mm
04:10 AM 30.9°F-0.6°C 19.4°F-7.0°C 62% 3.0 mph ESE4.8 kmh ESE 6.0 mph9.7 kmh 26.93 in912.0 mb 0.00 in0.0 mm 0.00 in0.0 mm 0.00 in0.0 mm
04:00 AM 30.8°F-0.7°C 20.4°F-6.4°C 65% 1.0 mph ESE1.6 kmh ESE 5.0 mph8.0 kmh 26.93 in912.0 mb 0.00 in0.0 mm 0.00 in0.0 mm 0.00 in0.0 mm
03:50 AM 31.3°F-0.4°C 20.6°F-6.3°C 64% 3.0 mph E4.8 kmh E 9.0 mph14.5 kmh 26.92 in911.6 mb 0.00 in0.0 mm 0.00 in0.0 mm 0.00 in0.0 mm
03:40 AM 30.9°F-0.6°C 20.9°F-6.2°C 66% 2.0 mph ESE3.2 kmh ESE 7.0 mph11.3 kmh 26.91 in911.3 mb 0.00 in0.0 mm 0.00 in0.0 mm 0.00 in0.0 mm
03:30 AM 31.0°F-0.6°C 22.0°F-5.6°C 69% 2.0 mph S3.2 kmh S 5.0 mph8.0 kmh 26.91 in911.3 mb 0.00 in0.0 mm 0.00 in0.0 mm 0.00 in0.0 mm
03:20 AM 31.5°F-0.3°C 21.5°F-5.8°C 66% 3.0 mph SE4.8 kmh SE 6.0 mph9.7 kmh 26.90 in910.9 mb 0.00 in0.0 mm 0.00 in0.0 mm 0.00 in0.0 mm
03:10 AM 32.0°F0.0°C 21.9°F-5.6°C 66% 3.0 mph ESE4.8 kmh ESE 9.0 mph14.5 kmh 26.89 in910.6 mb 0.00 in0.0 mm 0.00 in0.0 mm 0.00 in0.0 mm
03:00 AM 32.2°F0.1°C 21.4°F-5.9°C 64% 3.0 mph SSW4.8 kmh SSW 14.0 mph22.5 kmh 26.89 in910.6 mb 0.00 in0.0 mm 0.00 in0.0 mm 0.00 in0.0 mm
02:50 AM 32.3°F0.2°C 21.5°F-5.8°C 64% 3.0 mph SSW4.8 kmh SSW 13.0 mph20.9 kmh 26.87 in909.9 mb 0.00 in0.0 mm 0.00 in0.0 mm 0.00 in0.0 mm
02:40 AM 32.3°F0.2°C 22.9°F-5.1°C 68% 3.0 mph ENE4.8 kmh ENE 18.0 mph29.0 kmh 26.87 in909.9 mb 0.00 in0.0 mm 0.00 in0.0 mm 0.00 in0.0 mm
02:30 AM 32.5°F0.3°C 23.8°F-4.6°C 70% 2.0 mph ESE3.2 kmh ESE 10.0 mph16.1 kmh 26.86 in909.6 mb 0.00 in0.0 mm 0.00 in0.0 mm 0.00 in0.0 mm
02:20 AM 32.6°F0.3°C 23.6°F-4.7°C 69% 3.0 mph SE4.8 kmh SE 12.0 mph19.3 kmh 26.86 in909.6 mb 0.00 in0.0 mm 0.00 in0.0 mm 0.00 in0.0 mm
02:10 AM 32.5°F0.3°C 23.5°F-4.7°C 69% 2.0 mph NNE3.2 kmh NNE 6.0 mph9.7 kmh 26.86 in909.6 mb 0.00 in0.0 mm 0.00 in0.0 mm 0.00 in0.0 mm
01:50 AM 33.1°F0.6°C 22.3°F-5.4°C 64% 2.0 mph E3.2 kmh E 7.0 mph11.3 kmh 26.84 in908.9 mb 0.00 in0.0 mm 0.00 in0.0 mm 0.00 in0.0 mm
01:40 AM 33.0°F0.6°C 22.5°F-5.3°C 65% 3.0 mph ESE4.8 kmh ESE 10.0 mph16.1 kmh 26.84 in908.9 mb 0.00 in0.0 mm 0.00 in0.0 mm 0.00 in0.0 mm
01:30 AM 32.7°F0.4°C 23.3°F-4.8°C 68% 2.0 mph ESE3.2 kmh ESE 8.0 mph12.9 kmh 26.83 in908.6 mb 0.00 in0.0 mm 0.00 in0.0 mm 0.00 in0.0 mm
01:20 AM 32.7°F0.4°C 22.6°F-5.2°C 66% 2.0 mph E3.2 kmh E 6.0 mph9.7 kmh 26.81 in907.9 mb 0.00 in0.0 mm 0.00 in0.0 mm 0.00 in0.0 mm
01:10 AM 32.8°F0.4°C 23.1°F-4.9°C 67% 1.0 mph NW1.6 kmh NW 4.0 mph6.4 kmh 26.81 in907.9 mb 0.00 in0.0 mm 0.00 in0.0 mm 0.00 in0.0 mm
01:00 AM 33.1°F0.6°C 23.4°F-4.8°C 67% 3.0 mph NW4.8 kmh NW 9.0 mph14.5 kmh 26.81 in907.9 mb 0.00 in0.0 mm 0.00 in0.0 mm 0.00 in0.0 mm
12:50 AM 33.2°F0.7°C 22.7°F-5.2°C 65% 3.0 mph 4.8 kmh 12.0 mph19.3 kmh 26.80 in907.6 mb 0.00 in0.0 mm 0.00 in0.0 mm 0.00 in0.0 mm
12:40 AM 32.8°F0.4°C 22.7°F-5.2°C 66% 1.0 mph W1.6 kmh W 9.0 mph14.5 kmh 26.80 in907.6 mb 0.00 in0.0 mm 0.00 in0.0 mm 0.00 in0.0 mm
12:30 AM 33.5°F0.8°C 23.0°F-5.0°C 65% 3.0 mph SW4.8 kmh SW 10.0 mph16.1 kmh 26.79 in907.2 mb 0.00 in0.0 mm 0.00 in0.0 mm 0.00 in0.0 mm
12:20 AM 33.6°F0.9°C 22.4°F-5.3°C 63% 4.0 mph ESE6.4 kmh ESE 11.0 mph17.7 kmh 26.79 in907.2 mb 0.00 in0.0 mm 0.00 in0.0 mm 0.00 in0.0 mm
12:10 AM 33.7°F0.9°C 22.5°F-5.3°C 63% 4.0 mph SSW6.4 kmh SSW 7.0 mph11.3 kmh 26.78 in906.9 mb 0.00 in0.0 mm 0.00 in0.0 mm 0.00 in0.0 mm
12:00 AM 34.2°F1.2°C 22.9°F-5.1°C 63% 5.0 mph SE8.0 kmh SE 21.0 mph33.8 kmh 26.78 in906.9 mb 0.00 in0.0 mm 0.00 in0.0 mm 0.00 in0.0 mm